クライストチャーチ の空港の天気 - METARとTAF

クライストチャーチ国際空港 ( NZCH / CHC ) - ニュージーランド クライストチャーチ
飛行場実況気象(Metar)
観測時間11/20 22:00 NZDT (11/20 09:00 UTC)
風向・風速西南西 2m/s
視程10km以上
天気現象
全天の8割程度の雲 雲底高度 1010m
全天を覆う雲 雲底高度 1490m
気温14℃
湿度77%
気圧1021hPa
METARNZCH 200900Z AUTO 24003KT 9999 BKN033/// OVC049/// 14/10 Q1021 NOSIG
過去の天気等 Google飛行場航空写真 Wunderground天気予報

過去48時間のMETAR

飛行場予報(TAF)
発表時間: 11/20 21:56 NZDT (11/20 08:56 UTC)
予報対象時間: 20日21時 NZDT ~ 21日19時 NZDT
風向・風速南南西 4m/s
視程10km以上
全天の8割程度の雲 雲底高度 610m
21日5時 NZDT ~ 21日11時 NZDT に一時的に
全天の8割程度の雲 雲底高度 370m
21日11時 NZDT ~ 21日17時 NZDT に一時的に
視程7,000m
天気現象しゅう雨
全天の8割程度の雲 雲底高度 370m
TAF AMD NZCH 200856Z 2008/2106 20008KT 9999 BKN020
TEMPO 2016/2022 BKN012
TEMPO 2022/2104 7000 SHRA BKN012